Time;durP1;ratioP1;P1;durP2;ratioP2;P2;SDS_P1;SDS_P2;PMS_P1;PMS_P2;Temp;Humidity;BMP_temperature;BMP_pressure;BME280_temperature;BME280_humidity;BME280_pressure;Samples;Min_cycle;Max_cycle;Signal;HPM_P1;HPM_P2
2024/03/01 00:02:46;;;;;;;8.73;3.30;;;;;;;;;;10366949;28;20411;-91
2024/03/01 00:07:50;;;;;;;10.45;3.83;;;;;;;;;;10360438;28;20750;-91
2024/03/01 00:12:52;;;;;;;6.10;3.13;;;;;;;;;;10368941;28;20411;-92
2024/03/01 00:17:55;;;;;;;11.73;3.70;;;;;;;;;;10358561;28;20415;-91
2024/03/01 00:22:58;;;;;;;9.30;3.17;;;;;;;;;;10360488;28;20413;-91
2024/03/01 00:28:01;;;;;;;7.17;3.17;;;;;;;;;;10363646;28;20470;-91
2024/03/01 00:33:04;;;;;;;8.80;3.57;;;;;;;;;;10361721;28;20410;-91
2024/03/01 00:38:08;;;;;;;8.63;3.75;;;;;;;;;;10359816;28;20512;-90
2024/03/01 00:43:11;;;;;;;10.57;3.50;;;;;;;;;;10357235;28;20459;-89
2024/03/01 00:48:15;;;;;;;8.87;3.70;;;;;;;;;;10355613;28;20955;-90
2024/03/01 00:53:19;;;;;;;9.45;3.83;;;;;;;;;;10348341;28;20883;-90
2024/03/01 00:58:21;;;;;;;9.02;3.38;;;;;;;;;;10385008;28;20420;-90
2024/03/01 01:03:24;;;;;;;9.68;3.53;;;;;;;;;;10348669;28;20965;-90
2024/03/01 01:08:27;;;;;;;10.02;3.75;;;;;;;;;;10358588;28;20891;-91
2024/03/01 01:13:30;;;;;;;12.40;3.53;;;;;;;;;;10354870;28;20407;-89
2024/03/01 01:18:33;;;;;;;6.87;3.23;;;;;;;;;;10353487;28;20467;-90
2024/03/01 01:23:36;;;;;;;10.53;3.40;;;;;;;;;;10348055;28;20415;-90
2024/03/01 01:28:39;;;;;;;11.00;3.65;;;;;;;;;;10354657;28;20981;-90
2024/03/01 01:33:41;;;;;;;8.97;4.00;;;;;;;;;;10345495;28;20951;-90
2024/03/01 01:38:45;;;;;;;6.97;3.73;;;;;;;;;;10344421;28;21166;-90
2024/03/01 01:43:48;;;;;;;10.15;4.32;;;;;;;;;;10349381;28;20407;-90
2024/03/01 01:48:50;;;;;;;11.25;3.78;;;;;;;;;;10362155;28;20493;-89
2024/03/01 01:53:54;;;;;;;7.90;3.78;;;;;;;;;;10356048;28;20450;-89
2024/03/01 02:10:17;;;;;;;9.83;3.67;;;;;;;;;;10362934;28;20460;-90
2024/03/01 02:15:20;;;;;;;8.55;4.30;;;;;;;;;;10352378;28;20407;-90
2024/03/01 02:20:25;;;;;;;7.38;3.90;;;;;;;;;;10353656;28;20403;-89
2024/03/01 02:25:29;;;;;;;11.75;4.35;;;;;;;;;;10353726;28;20433;-89
2024/03/01 02:30:32;;;;;;;7.33;3.90;;;;;;;;;;10342730;28;20988;-90
2024/03/01 02:35:34;;;;;;;9.60;4.07;;;;;;;;;;10353594;28;20463;-88
2024/03/01 02:40:38;;;;;;;12.27;4.45;;;;;;;;;;10352820;28;20959;-89
2024/03/01 02:45:41;;;;;;;11.02;4.80;;;;;;;;;;10361097;28;20435;-90
2024/03/01 02:50:43;;;;;;;13.32;4.78;;;;;;;;;;10340986;28;20475;-89
2024/03/01 02:55:47;;;;;;;10.10;4.53;;;;;;;;;;10341824;28;20408;-89
2024/03/01 03:00:49;;;;;;;10.20;4.73;;;;;;;;;;10345281;28;20411;-88
2024/03/01 03:05:52;;;;;;;12.13;4.53;;;;;;;;;;10356034;28;20484;-90
2024/03/01 03:10:56;;;;;;;9.82;4.85;;;;;;;;;;10361207;28;20410;-90
2024/03/01 03:15:59;;;;;;;11.57;4.73;;;;;;;;;;10353982;28;20411;-90
2024/03/01 03:21:01;;;;;;;10.83;5.27;;;;;;;;;;10378317;28;20438;-89
2024/03/01 03:26:05;;;;;;;12.63;5.27;;;;;;;;;;10346409;28;20405;-90
2024/03/01 03:31:07;;;;;;;10.35;4.50;;;;;;;;;;10363851;28;20411;-90
2024/03/01 03:36:10;;;;;;;9.80;4.68;;;;;;;;;;10350583;28;20477;-90
2024/03/01 03:41:14;;;;;;;11.15;4.45;;;;;;;;;;10366029;28;20548;-89
2024/03/01 03:46:16;;;;;;;9.70;4.37;;;;;;;;;;10355275;28;20449;-91
2024/03/01 03:51:24;;;;;;;12.68;4.82;;;;;;;;;;10361667;28;20903;-89
2024/03/01 03:56:28;;;;;;;12.13;4.75;;;;;;;;;;10366696;28;20980;-89
2024/03/01 04:01:30;;;;;;;10.20;4.20;;;;;;;;;;10355980;28;20438;-89
2024/03/01 04:06:33;;;;;;;10.18;4.55;;;;;;;;;;10352580;28;20463;-89
2024/03/01 04:11:36;;;;;;;14.02;4.85;;;;;;;;;;10354072;28;20415;-90
2024/03/01 04:16:39;;;;;;;9.00;4.80;;;;;;;;;;10365359;28;20424;-90
2024/03/01 04:21:42;;;;;;;12.50;4.97;;;;;;;;;;10349187;28;20415;-89
2024/03/01 04:26:46;;;;;;;7.95;4.57;;;;;;;;;;10359489;28;20406;-89
2024/03/01 04:31:49;;;;;;;9.17;3.70;;;;;;;;;;10366119;28;20483;-90
2024/03/01 04:36:51;;;;;;;11.93;3.95;;;;;;;;;;10362938;28;20433;-89
2024/03/01 04:41:56;;;;;;;11.27;4.00;;;;;;;;;;10368503;28;20813;-90
2024/03/01 04:46:58;;;;;;;9.90;4.28;;;;;;;;;;10352834;28;20483;-89
2024/03/01 04:52:01;;;;;;;8.68;3.65;;;;;;;;;;10355783;28;20833;-90
2024/03/01 04:57:06;;;;;;;10.68;4.10;;;;;;;;;;10358931;28;20485;-90
2024/03/01 05:02:08;;;;;;;10.73;4.13;;;;;;;;;;10348431;28;20413;-90
2024/03/01 05:07:10;;;;;;;7.23;4.10;;;;;;;;;;10348323;28;20887;-89
2024/03/01 05:12:14;;;;;;;10.10;4.10;;;;;;;;;;10358754;28;20568;-89
2024/03/01 05:17:17;;;;;;;11.77;4.22;;;;;;;;;;10349767;28;20490;-90
2024/03/01 05:22:19;;;;;;;10.70;4.10;;;;;;;;;;10347180;28;20758;-89
2024/03/01 05:27:23;;;;;;;9.50;4.72;;;;;;;;;;10354116;28;20434;-89
2024/03/01 05:32:27;;;;;;;11.35;5.10;;;;;;;;;;10363064;28;20444;-90
2024/03/01 05:37:30;;;;;;;13.17;4.73;;;;;;;;;;10372858;28;20435;-91
2024/03/01 05:42:33;;;;;;;8.73;4.47;;;;;;;;;;10353553;28;20788;-90
2024/03/01 05:47:36;;;;;;;9.65;3.97;;;;;;;;;;10346436;28;20415;-90
2024/03/01 05:52:40;;;;;;;7.73;4.00;;;;;;;;;;10349257;28;20463;-90
2024/03/01 05:57:46;;;;;;;10.52;4.03;;;;;;;;;;10350187;28;20433;-91
2024/03/01 06:02:49;;;;;;;12.15;4.55;;;;;;;;;;10344656;28;20409;-90
2024/03/01 06:07:51;;;;;;;9.45;4.25;;;;;;;;;;10344315;28;20436;-91
2024/03/01 06:12:57;;;;;;;8.52;4.18;;;;;;;;;;10350886;28;20475;-90
2024/03/01 06:18:00;;;;;;;9.37;4.17;;;;;;;;;;10352533;28;20552;-91
2024/03/01 06:23:02;;;;;;;8.88;4.05;;;;;;;;;;10350982;28;20890;-89
2024/03/01 06:28:06;;;;;;;11.23;4.07;;;;;;;;;;10358326;28;20403;-89
2024/03/01 06:33:11;;;;;;;9.80;4.55;;;;;;;;;;10379949;28;20403;-90
2024/03/01 06:38:13;;;;;;;13.38;5.10;;;;;;;;;;10372583;28;20454;-89
2024/03/01 06:43:17;;;;;;;10.55;4.78;;;;;;;;;;10382244;28;20399;-89
2024/03/01 06:48:21;;;;;;;8.65;4.85;;;;;;;;;;10370170;28;20410;-92
2024/03/01 06:53:23;;;;;;;11.60;5.43;;;;;;;;;;10353930;28;20417;-89
2024/03/01 06:58:27;;;;;;;11.50;4.70;;;;;;;;;;10364028;28;20510;-89
2024/03/01 07:03:29;;;;;;;9.43;5.10;;;;;;;;;;10363928;28;20403;-89
2024/03/01 07:08:32;;;;;;;11.73;5.13;;;;;;;;;;10363656;28;20880;-89
2024/03/01 07:13:35;;;;;;;12.15;5.30;;;;;;;;;;10356941;28;21389;-89
2024/03/01 07:18:38;;;;;;;12.38;5.68;;;;;;;;;;10356212;28;20901;-89
2024/03/01 07:23:40;;;;;;;12.17;5.73;;;;;;;;;;10352657;28;20896;-89
2024/03/01 07:28:44;;;;;;;12.83;6.13;;;;;;;;;;10366483;28;20405;-88
2024/03/01 07:33:46;;;;;;;15.85;5.05;;;;;;;;;;10370538;28;20413;-89
2024/03/01 07:38:49;;;;;;;12.98;5.50;;;;;;;;;;10360826;28;20494;-89
2024/03/01 07:43:53;;;;;;;13.63;5.72;;;;;;;;;;10361821;28;20413;-88
2024/03/01 07:48:55;;;;;;;11.17;5.30;;;;;;;;;;10601017;23;20521;-88
2024/03/01 07:53:57;;;;;;;14.10;5.43;;;;;;;;;;10356632;28;20807;-89
2024/03/01 07:59:03;;;;;;;10.38;5.13;;;;;;;;;;10362250;28;20467;-88
2024/03/01 08:04:05;;;;;;;10.95;5.32;;;;;;;;;;10365246;28;20471;-90
2024/03/01 08:09:17;;;;;;;13.57;5.72;;;;;;;;;;10364706;28;20474;-88
2024/03/01 08:14:23;;;;;;;25.50;7.28;;;;;;;;;;10351486;28;20413;-90
2024/03/01 08:19:35;;;;;;;13.57;5.20;;;;;;;;;;10367435;28;20415;-90
2024/03/01 08:24:38;;;;;;;11.05;5.10;;;;;;;;;;10343059;28;20405;-91
2024/03/01 08:29:42;;;;;;;13.50;5.43;;;;;;;;;;10350700;28;20399;-89
2024/03/01 08:34:52;;;;;;;13.35;6.93;;;;;;;;;;10360578;28;20912;-88
2024/03/01 08:39:55;;;;;;;15.07;6.85;;;;;;;;;;10343055;28;20432;-86
2024/03/01 08:44:59;;;;;;;21.23;9.23;;;;;;;;;;10351384;28;20475;-89
2024/03/01 08:50:44;;;;;;;17.70;9.10;;;;;;;;;;10355507;28;20412;-88
2024/03/01 08:55:50;;;;;;;16.08;8.30;;;;;;;;;;10363780;28;20399;-86
2024/03/01 09:00:56;;;;;;;19.15;8.43;;;;;;;;;;10355748;28;21002;-89
2024/03/01 09:05:59;;;;;;;16.35;8.23;;;;;;;;;;10365040;28;20407;-89
2024/03/01 09:11:02;;;;;;;17.20;9.05;;;;;;;;;;10360127;28;20407;-89
2024/03/01 09:16:18;;;;;;;18.47;7.83;;;;;;;;;;10360934;28;20407;-88
2024/03/01 09:21:43;;;;;;;16.13;7.88;;;;;;;;;;10357794;28;20491;-90
2024/03/01 09:26:47;;;;;;;16.48;7.80;;;;;;;;;;10357897;28;20951;-89
2024/03/01 09:31:51;;;;;;;17.02;7.55;;;;;;;;;;10359186;28;20485;-89
2024/03/01 09:36:54;;;;;;;17.42;7.47;;;;;;;;;;10357822;28;20403;-91
2024/03/01 09:42:13;;;;;;;14.97;7.00;;;;;;;;;;10359508;28;20970;-89
2024/03/01 09:47:29;;;;;;;12.60;7.38;;;;;;;;;;10353497;28;20457;-90
2024/03/01 09:52:43;;;;;;;17.70;9.75;;;;;;;;;;10356335;28;20836;-88
2024/03/01 09:57:53;;;;;;;20.20;10.03;;;;;;;;;;10349727;28;20417;-89
2024/03/01 10:03:09;;;;;;;19.83;9.80;;;;;;;;;;10356603;28;20447;-87
2024/03/01 10:08:24;;;;;;;18.03;10.60;;;;;;;;;;10365364;28;20446;-88
2024/03/01 10:13:35;;;;;;;20.13;10.30;;;;;;;;;;10355080;28;20411;-89
2024/03/01 10:18:58;;;;;;;19.70;11.03;;;;;;;;;;10359120;28;20505;-88
2024/03/01 10:24:22;;;;;;;19.35;10.88;;;;;;;;;;10356432;28;20409;-88
2024/03/01 10:29:32;;;;;;;17.75;10.93;;;;;;;;;;10353871;28;20419;-89
2024/03/01 10:34:47;;;;;;;22.52;12.18;;;;;;;;;;10347997;28;20443;-88
2024/03/01 10:39:57;;;;;;;21.75;11.82;;;;;;;;;;10353293;28;20449;-88
2024/03/01 10:45:06;;;;;;;22.23;11.95;;;;;;;;;;10351691;28;20481;-88
2024/03/01 10:50:21;;;;;;;19.52;10.65;;;;;;;;;;10361236;28;20407;-89
2024/03/01 10:55:25;;;;;;;22.02;11.25;;;;;;;;;;10353693;28;20411;-89
2024/03/01 11:00:28;;;;;;;20.48;10.95;;;;;;;;;;10349253;28;20426;-87
2024/03/01 11:05:37;;;;;;;18.90;11.10;;;;;;;;;;10348845;28;20465;-88
2024/03/01 11:10:49;;;;;;;21.50;10.77;;;;;;;;;;10364032;28;20416;-88
2024/03/01 11:15:53;;;;;;;19.60;10.87;;;;;;;;;;10363331;28;20778;-89
2024/03/01 11:21:02;;;;;;;17.10;10.20;;;;;;;;;;10360036;28;20423;-89
2024/03/01 11:26:11;;;;;;;19.47;10.57;;;;;;;;;;10362719;28;20461;-89
2024/03/01 11:31:20;;;;;;;16.97;9.53;;;;;;;;;;10360519;28;20494;-89
2024/03/01 11:36:42;;;;;;;17.73;10.63;;;;;;;;;;10352316;28;20477;-90
2024/03/01 11:41:51;;;;;;;15.73;9.60;;;;;;;;;;10354831;28;20429;-88
2024/03/01 11:47:09;;;;;;;15.90;9.27;;;;;;;;;;10358992;28;20408;-89
2024/03/01 11:52:36;;;;;;;14.57;8.88;;;;;;;;;;10362498;28;20399;-89
2024/03/01 11:57:45;;;;;;;16.10;10.00;;;;;;;;;;10351400;28;20487;-90
2024/03/01 12:03:08;;;;;;;17.33;9.47;;;;;;;;;;10356308;28;20478;-90
2024/03/01 12:08:27;;;;;;;15.27;9.27;;;;;;;;;;10363197;28;20428;-89
2024/03/01 12:13:35;;;;;;;18.80;9.48;;;;;;;;;;10372641;28;20453;-90
2024/03/01 12:18:45;;;;;;;15.95;9.32;;;;;;;;;;10356329;28;20429;-89
2024/03/01 12:24:04;;;;;;;14.00;8.85;;;;;;;;;;10351799;28;20415;-88
2024/03/01 12:29:24;;;;;;;13.10;8.05;;;;;;;;;;10367239;28;20400;-90
2024/03/01 12:34:45;;;;;;;13.50;8.20;;;;;;;;;;10361337;28;20971;-89
2024/03/01 12:40:10;;;;;;;15.27;8.43;;;;;;;;;;10356548;28;20505;-89
2024/03/01 12:45:27;;;;;;;13.88;8.10;;;;;;;;;;10355317;28;20509;-89
2024/03/01 12:50:42;;;;;;;14.77;8.82;;;;;;;;;;10357077;28;20438;-90
2024/03/01 12:55:52;;;;;;;13.40;8.17;;;;;;;;;;10368132;28;20415;-89
2024/03/01 13:01:04;;;;;;;13.13;7.53;;;;;;;;;;10360894;28;20502;-88
2024/03/01 13:06:08;;;;;;;12.15;7.22;;;;;;;;;;10366528;28;20403;-90
2024/03/01 13:11:14;;;;;;;10.57;7.38;;;;;;;;;;10358234;28;20409;-89
2024/03/01 13:16:18;;;;;;;12.70;6.90;;;;;;;;;;10349150;28;20409;-88
2024/03/01 13:21:30;;;;;;;13.18;7.05;;;;;;;;;;10352754;28;20905;-89
2024/03/01 13:26:39;;;;;;;11.53;6.93;;;;;;;;;;10350876;28;20411;-89
2024/03/01 13:31:48;;;;;;;11.00;6.25;;;;;;;;;;10393297;28;20469;-89
2024/03/01 13:37:01;;;;;;;9.57;6.63;;;;;;;;;;10386444;28;20403;-89
2024/03/01 13:42:19;;;;;;;11.13;5.82;;;;;;;;;;10358039;28;20451;-89
2024/03/01 13:47:22;;;;;;;11.07;5.47;;;;;;;;;;10348824;28;20483;-90
2024/03/01 13:52:24;;;;;;;9.00;5.57;;;;;;;;;;10356844;28;20969;-90
2024/03/01 13:57:28;;;;;;;9.18;4.97;;;;;;;;;;10358914;28;20399;-89
2024/03/01 14:02:30;;;;;;;9.88;4.93;;;;;;;;;;10352848;28;20450;-89
2024/03/01 14:07:33;;;;;;;7.80;5.28;;;;;;;;;;10357605;28;20399;-90
2024/03/01 14:12:38;;;;;;;9.90;5.40;;;;;;;;;;10372253;28;20917;-90
2024/03/01 14:17:42;;;;;;;8.77;5.50;;;;;;;;;;10347735;28;20400;-87
2024/03/01 14:22:46;;;;;;;13.45;6.10;;;;;;;;;;10345938;28;20550;-91
2024/03/01 14:27:52;;;;;;;10.05;6.80;;;;;;;;;;10348977;28;20416;-91
2024/03/01 14:32:55;;;;;;;11.07;6.53;;;;;;;;;;10349750;28;20469;-90
2024/03/01 14:37:58;;;;;;;13.43;6.70;;;;;;;;;;10378233;28;20453;-94
2024/03/01 14:43:06;;;;;;;10.80;6.15;;;;;;;;;;10363541;28;20766;-90
2024/03/01 14:48:11;;;;;;;12.30;5.95;;;;;;;;;;10367073;28;20407;-92
2024/03/01 14:53:34;;;;;;;9.67;5.60;;;;;;;;;;10359002;28;20399;-89
2024/03/01 14:58:41;;;;;;;9.35;6.05;;;;;;;;;;10358123;28;20416;-90
2024/03/01 15:03:48;;;;;;;10.10;5.83;;;;;;;;;;10359275;28;20975;-90
2024/03/01 15:08:51;;;;;;;10.00;5.90;;;;;;;;;;10376056;28;20433;-90
2024/03/01 15:13:55;;;;;;;10.73;4.97;;;;;;;;;;10368880;28;20403;-90
2024/03/01 15:18:58;;;;;;;8.83;4.80;;;;;;;;;;10360837;28;20415;-89
2024/03/01 15:24:00;;;;;;;8.77;5.43;;;;;;;;;;10355243;28;20481;-89
2024/03/01 15:29:04;;;;;;;7.70;4.70;;;;;;;;;;10360570;28;20414;-89
2024/03/01 15:34:07;;;;;;;8.63;4.80;;;;;;;;;;10367034;28;20454;-88
2024/03/01 15:39:13;;;;;;;8.93;4.50;;;;;;;;;;10362767;28;20412;-89
2024/03/01 15:44:17;;;;;;;10.07;4.20;;;;;;;;;;10347231;28;20429;-89
2024/03/01 15:49:19;;;;;;;8.57;4.20;;;;;;;;;;10361036;28;20434;-87
2024/03/01 15:54:21;;;;;;;6.30;3.70;;;;;;;;;;10380538;28;20473;-90
2024/03/01 15:59:25;;;;;;;5.47;3.50;;;;;;;;;;10376986;28;20421;-88
2024/03/01 16:04:29;;;;;;;8.77;3.80;;;;;;;;;;10354680;28;20405;-89
2024/03/01 16:09:35;;;;;;;7.32;3.72;;;;;;;;;;10361168;28;20444;-91
2024/03/01 16:14:47;;;;;;;8.47;4.03;;;;;;;;;;10349770;28;20449;-88
2024/03/01 16:19:50;;;;;;;4.90;3.03;;;;;;;;;;10355000;28;20484;-89
2024/03/01 16:24:54;;;;;;;5.82;3.50;;;;;;;;;;10357928;28;20413;-89
2024/03/01 16:29:59;;;;;;;4.30;3.00;;;;;;;;;;10360925;28;20411;-88
2024/03/01 16:35:03;;;;;;;5.80;3.10;;;;;;;;;;10360452;28;20450;-89
2024/03/01 16:40:10;;;;;;;4.60;2.50;;;;;;;;;;10354358;28;20479;-90
2024/03/01 16:45:21;;;;;;;6.15;2.92;;;;;;;;;;10359111;28;20425;-89
2024/03/01 16:50:24;;;;;;;5.90;2.60;;;;;;;;;;10360654;28;21046;-89
2024/03/01 16:55:49;;;;;;;4.53;2.57;;;;;;;;;;10363037;28;21069;-90
2024/03/01 17:00:59;;;;;;;7.63;3.30;;;;;;;;;;10352005;28;20422;-89
2024/03/01 17:06:02;;;;;;;5.43;2.70;;;;;;;;;;10370448;28;20499;-89
2024/03/01 17:11:08;;;;;;;7.45;3.00;;;;;;;;;;10363705;28;20405;-90
2024/03/01 17:16:23;;;;;;;5.53;2.97;;;;;;;;;;10352904;28;20413;-89
2024/03/01 17:21:30;;;;;;;6.22;4.40;;;;;;;;;;10369499;28;20420;-89
2024/03/01 17:26:32;;;;;;;6.80;3.50;;;;;;;;;;10351132;28;20419;-89
2024/03/01 17:31:36;;;;;;;6.47;3.28;;;;;;;;;;10353142;28;20446;-89
2024/03/01 17:36:39;;;;;;;8.45;3.60;;;;;;;;;;10343183;28;20480;-86
2024/03/01 17:41:41;;;;;;;7.15;4.05;;;;;;;;;;10334700;28;21118;-84
2024/03/01 17:46:45;;;;;;;5.78;3.25;;;;;;;;;;10308405;28;21083;-83
2024/03/01 17:51:47;;;;;;;11.63;5.30;;;;;;;;;;10342655;28;20467;-85
2024/03/01 17:56:50;;;;;;;9.70;5.37;;;;;;;;;;10353331;28;20446;-85
2024/03/01 18:01:53;;;;;;;8.33;3.70;;;;;;;;;;10347299;28;20497;-85
2024/03/01 18:07:05;;;;;;;8.63;3.38;;;;;;;;;;10351512;28;20415;-85
2024/03/01 18:12:08;;;;;;;3.90;2.57;;;;;;;;;;10358412;28;20450;-84
2024/03/01 18:17:12;;;;;;;6.93;3.10;;;;;;;;;;10360321;28;20430;-85
2024/03/01 18:22:14;;;;;;;6.97;2.97;;;;;;;;;;10349242;28;20427;-85
2024/03/01 18:27:17;;;;;;;7.07;3.60;;;;;;;;;;10350171;28;20581;-85
2024/03/01 18:32:21;;;;;;;7.38;3.83;;;;;;;;;;10365453;28;20508;-84
2024/03/01 18:37:25;;;;;;;7.65;3.25;;;;;;;;;;10358080;28;20448;-85
2024/03/01 18:42:27;;;;;;;7.80;3.33;;;;;;;;;;10348059;28;20487;-85
2024/03/01 18:47:31;;;;;;;4.47;2.90;;;;;;;;;;10356512;28;20435;-86
2024/03/01 18:52:33;;;;;;;4.47;3.03;;;;;;;;;;10351339;28;20458;-85
2024/03/01 18:57:37;;;;;;;6.80;3.22;;;;;;;;;;10351878;28;20473;-85
2024/03/01 19:02:41;;;;;;;5.35;3.40;;;;;;;;;;10366655;28;20423;-85
2024/03/01 19:07:43;;;;;;;6.03;3.90;;;;;;;;;;10346725;28;20561;-84
2024/03/01 19:12:46;;;;;;;6.17;3.93;;;;;;;;;;10347893;28;20972;-85
2024/03/01 19:17:50;;;;;;;6.93;4.37;;;;;;;;;;10358349;28;20502;-85
2024/03/01 19:22:52;;;;;;;7.05;4.40;;;;;;;;;;10366183;28;20524;-83
2024/03/01 19:27:55;;;;;;;7.60;4.38;;;;;;;;;;10368913;28;20413;-86
2024/03/01 19:32:59;;;;;;;8.95;4.82;;;;;;;;;;10352664;28;20448;-85
2024/03/01 19:38:01;;;;;;;7.70;4.43;;;;;;;;;;10355103;28;20446;-85
2024/03/01 19:43:06;;;;;;;8.83;4.40;;;;;;;;;;10352906;28;20513;-85
2024/03/01 19:48:10;;;;;;;8.40;3.97;;;;;;;;;;10337536;28;20450;-86
2024/03/01 19:53:13;;;;;;;5.37;3.30;;;;;;;;;;10357143;28;20621;-84
2024/03/01 19:58:15;;;;;;;7.17;3.50;;;;;;;;;;10355162;28;20523;-86
2024/03/01 20:03:19;;;;;;;5.83;3.60;;;;;;;;;;10353548;28;20459;-85
2024/03/01 20:08:26;;;;;;;6.57;3.07;;;;;;;;;;10344687;28;20505;-85
2024/03/01 20:13:29;;;;;;;5.37;2.87;;;;;;;;;;10323356;28;20711;-84
2024/03/01 20:18:33;;;;;;;6.17;3.10;;;;;;;;;;10346512;28;20829;-86
2024/03/01 20:23:35;;;;;;;6.43;3.00;;;;;;;;;;10353812;28;20536;-86
2024/03/01 20:28:37;;;;;;;6.30;2.83;;;;;;;;;;10352087;28;20971;-84
2024/03/01 20:33:41;;;;;;;6.32;3.30;;;;;;;;;;10351515;28;20813;-85
2024/03/01 20:38:44;;;;;;;5.45;2.90;;;;;;;;;;10364227;28;20446;-86
2024/03/01 20:43:46;;;;;;;4.60;3.20;;;;;;;;;;10362088;28;20423;-88
2024/03/01 20:48:52;;;;;;;4.13;2.57;;;;;;;;;;10340127;28;20562;-85
2024/03/01 20:53:56;;;;;;;5.78;3.22;;;;;;;;;;10352019;28;20423;-87
2024/03/01 20:58:58;;;;;;;7.10;3.53;;;;;;;;;;10354029;28;20417;-87
2024/03/01 21:04:02;;;;;;;7.53;3.40;;;;;;;;;;10352109;28;20481;-87
2024/03/01 21:09:04;;;;;;;7.28;3.50;;;;;;;;;;10349094;28;20916;-86
2024/03/01 21:14:07;;;;;;;7.35;4.18;;;;;;;;;;10352027;28;20905;-86
2024/03/01 21:19:10;;;;;;;7.82;3.33;;;;;;;;;;10348016;28;20419;-87
2024/03/01 21:24:13;;;;;;;7.43;3.53;;;;;;;;;;10330971;28;20417;-87
2024/03/01 21:29:23;;;;;;;5.05;3.20;;;;;;;;;;10337401;28;20409;-86
2024/03/01 21:34:27;;;;;;;7.30;3.73;;;;;;;;;;10344006;28;20420;-86
2024/03/01 21:39:30;;;;;;;12.82;6.40;;;;;;;;;;10339927;28;20407;-87
2024/03/01 21:44:32;;;;;;;6.88;3.13;;;;;;;;;;10350266;28;20467;-86
2024/03/01 21:49:36;;;;;;;7.10;2.65;;;;;;;;;;10359692;28;20415;-87
2024/03/01 21:54:38;;;;;;;7.63;3.30;;;;;;;;;;10350783;28;20421;-85
2024/03/01 21:59:41;;;;;;;7.80;3.30;;;;;;;;;;10344745;28;20918;-85
2024/03/01 22:04:45;;;;;;;7.30;2.80;;;;;;;;;;10347854;28;20429;-86
2024/03/01 22:09:48;;;;;;;7.35;2.92;;;;;;;;;;10359421;28;20454;-85
2024/03/01 22:14:50;;;;;;;6.90;2.75;;;;;;;;;;10355995;28;20988;-87
2024/03/01 22:19:54;;;;;;;6.60;3.00;;;;;;;;;;10336914;28;20462;-86
2024/03/01 22:24:57;;;;;;;6.30;3.10;;;;;;;;;;10345904;28;20489;-86
2024/03/01 22:29:59;;;;;;;12.27;2.90;;;;;;;;;;10348236;28;20402;-86
2024/03/01 22:35:04;;;;;;;6.78;2.80;;;;;;;;;;10340333;28;20945;-87
2024/03/01 22:40:08;;;;;;;6.07;2.30;;;;;;;;;;10338616;28;20424;-88
2024/03/01 22:45:10;;;;;;;5.60;2.38;;;;;;;;;;10348909;28;20466;-88
2024/03/01 22:50:15;;;;;;;4.93;1.85;;;;;;;;;;10340269;28;20497;-88
2024/03/01 22:55:32;;;;;;;6.17;1.80;;;;;;;;;;10339902;28;20751;-88
2024/03/01 23:00:40;;;;;;;7.93;1.95;;;;;;;;;;10344270;28;20833;-88
2024/03/01 23:05:53;;;;;;;5.47;1.90;;;;;;;;;;10336682;28;20579;-88
2024/03/01 23:10:58;;;;;;;6.00;2.17;;;;;;;;;;10340017;28;20409;-87
2024/03/01 23:16:00;;;;;;;3.90;1.90;;;;;;;;;;10344442;28;20460;-87
2024/03/01 23:21:04;;;;;;;9.00;2.00;;;;;;;;;;10357818;28;20614;-87
2024/03/01 23:26:07;;;;;;;5.57;1.80;;;;;;;;;;10360661;28;20423;-87
2024/03/01 23:31:09;;;;;;;4.47;1.90;;;;;;;;;;10359585;28;20415;-88
2024/03/01 23:36:14;;;;;;;5.47;1.75;;;;;;;;;;10351447;28;20553;-87
2024/03/01 23:41:16;;;;;;;7.47;2.10;;;;;;;;;;10351048;28;20417;-88
2024/03/01 23:46:19;;;;;;;7.90;1.90;;;;;;;;;;10354652;28;20427;-88
2024/03/01 23:51:22;;;;;;;7.03;1.88;;;;;;;;;;10362711;28;20407;-88
2024/03/01 23:56:25;;;;;;;5.30;1.52;;;;;;;;;;10353316;28;20498;-88
